Time;durP1;ratioP1;P1;durP2;ratioP2;P2;SDS_P1;SDS_P2;PMS_P1;PMS_P2;Temp;Humidity;BMP_temperature;BMP_pressure;BME280_temperature;BME280_humidity;BME280_pressure;Samples;Min_cycle;Max_cycle;Signal;HPM_P1;HPM_P2
2022/03/17 07:20:02;;;;;;;12.10;2.30;;;;;;;4.08;100.00;102003.72;6069269;23;20026;-81
2022/03/17 07:22:28;;;;;;;14.57;2.35;;;;;;;4.13;100.00;102014.06;6025529;23;20015;-77
2022/03/17 07:24:54;;;;;;;10.38;2.13;;;;;;;4.11;100.00;102005.19;6128376;23;20013;-70
2022/03/17 07:27:23;;;;;;;9.60;2.58;;;;;;;4.11;100.00;102008.78;6186560;23;20024;-70
2022/03/17 07:29:49;;;;;;;7.88;1.92;;;;;;;4.13;100.00;102009.41;6186344;23;20043;-71
2022/03/17 07:32:15;;;;;;;9.20;2.35;;;;;;;4.16;100.00;102011.72;6137264;23;20008;-73
2022/03/17 07:34:40;;;;;;;9.20;2.10;;;;;;;4.19;100.00;102024.22;6162040;23;20013;-70
2022/03/17 07:37:06;;;;;;;8.82;2.13;;;;;;;4.23;100.00;102023.56;6187257;23;20013;-70
2022/03/17 07:39:31;;;;;;;10.05;1.85;;;;;;;4.25;100.00;102032.44;6166839;23;20009;-70
2022/03/17 07:41:57;;;;;;;19.75;2.78;;;;;;;4.27;100.00;102031.38;6163030;23;20013;-70
2022/03/17 07:44:22;;;;;;;13.80;2.50;;;;;;;4.28;100.00;102031.16;6161503;23;20067;-70
2022/03/17 07:46:48;;;;;;;14.10;2.35;;;;;;;4.33;100.00;102036.03;6186666;23;20343;-70
2022/03/17 07:49:14;;;;;;;9.45;2.00;;;;;;;4.34;100.00;102048.72;6161736;23;20009;-70
2022/03/17 07:51:40;;;;;;;7.72;2.40;;;;;;;4.36;100.00;102043.84;6187930;23;20013;-70
2022/03/17 07:54:07;;;;;;;8.68;2.65;;;;;;;4.41;100.00;102038.53;6250066;23;20004;-70
2022/03/17 07:56:32;;;;;;;7.50;2.05;;;;;;;4.41;100.00;102052.31;6223158;23;20329;-70
2022/03/17 07:58:58;;;;;;;10.77;2.50;;;;;;;4.41;100.00;102052.31;6249295;23;20000;-70
2022/03/17 08:01:25;;;;;;;14.23;2.15;;;;;;;4.38;100.00;102053.56;6249475;23;20006;-70
2022/03/17 08:03:52;;;;;;;16.50;2.13;;;;;;;4.42;100.00;102065.81;6250623;23;20004;-70
2022/03/17 08:06:18;;;;;;;9.38;1.92;;;;;;;4.43;100.00;102070.28;6200900;23;20004;-70
2022/03/17 08:08:46;;;;;;;11.35;2.15;;;;;;;4.47;100.00;102067.94;6198105;23;20019;-70
2022/03/17 08:11:11;;;;;;;8.35;2.05;;;;;;;4.49;100.00;102079.59;6249530;23;20004;-70
2022/03/17 08:13:37;;;;;;;16.10;2.47;;;;;;;4.54;100.00;102082.53;6249254;23;20451;-70
2022/03/17 08:16:41;;;;;;;8.23;2.00;;;;;;;4.57;100.00;102083.97;6249465;22;20020;-81
2022/03/17 08:19:16;;;;;;;;;;;;;;;4.64;100.00;102082.06;6224976;23;20007;-75
2022/03/17 08:21:41;;;;;;;12.10;2.22;;;;;;;4.70;100.00;102086.72;6249747;23;19903;-75
2022/03/17 08:24:07;;;;;;;12.93;2.35;;;;;;;4.76;100.00;102091.34;6249749;23;20008;-73
2022/03/17 08:26:33;;;;;;;12.65;2.78;;;;;;;4.83;100.00;102089.41;6219373;23;20076;-75
2022/03/17 08:28:59;;;;;;;14.80;3.17;;;;;;;4.91;100.00;102088.34;6222304;23;20588;-73
2022/03/17 08:31:25;;;;;;;7.43;2.70;;;;;;;4.99;100.00;102090.84;6195470;23;20073;-73
2022/03/17 08:33:50;;;;;;;15.32;2.42;;;;;;;5.04;100.00;102102.06;6197264;23;20008;-73
2022/03/17 08:36:16;;;;;;;8.77;2.08;;;;;;;5.13;100.00;102097.97;6190591;23;20007;-73
2022/03/17 08:38:41;;;;;;;8.88;2.08;;;;;;;5.15;100.00;102106.88;6173115;23;20008;-73
2022/03/17 08:41:07;;;;;;;10.85;2.65;;;;;;;5.21;100.00;102101.53;6222689;23;20000;-73
2022/03/17 08:43:32;;;;;;;16.88;2.33;;;;;;;5.23;100.00;102099.41;6197420;23;20015;-72
2022/03/17 08:51:26;;;;;;;12.13;2.13;;;;;;;5.35;100.00;102108.69;6196889;23;20369;-71
2022/03/17 08:53:52;;;;;;;10.73;2.70;;;;;;;5.43;100.00;102099.28;6168047;23;20047;-71
2022/03/17 08:56:17;;;;;;;10.20;1.83;;;;;;;5.46;100.00;102105.22;6217973;23;20004;-71
2022/03/17 08:58:43;;;;;;;13.95;2.78;;;;;;;5.52;100.00;102106.25;6200466;23;20015;-72
2022/03/17 09:01:08;;;;;;;9.10;2.47;;;;;;;5.59;100.00;102116.16;6225910;23;20004;-71
2022/03/17 09:03:34;;;;;;;11.63;2.33;;;;;;;5.69;100.00;102128.63;6169735;23;20016;-71
2022/03/17 09:06:00;;;;;;;8.02;1.95;;;;;;;5.78;100.00;102121.78;6222542;23;20008;-71
2022/03/17 09:08:28;;;;;;;8.45;2.15;;;;;;;5.81;100.00;102121.31;6197657;23;20004;-78
2022/03/17 09:10:57;;;;;;;10.68;2.20;;;;;;;5.88;100.00;102118.50;6198289;23;20078;-74
2022/03/17 09:13:25;;;;;;;12.60;2.13;;;;;;;5.98;100.00;102122.47;6251364;23;20377;-74
2022/03/17 09:15:51;;;;;;;6.00;1.85;;;;;;;6.04;100.00;102129.88;6251237;23;20074;-74
2022/03/17 09:18:17;;;;;;;7.97;1.63;;;;;;;6.15;100.00;102122.78;6224895;23;20004;-74
2022/03/17 09:20:42;;;;;;;8.35;1.77;;;;;;;6.19;98.19;102128.69;6224593;23;20008;-73
2022/03/17 09:23:08;;;;;;;9.38;2.00;;;;;;;6.31;99.82;102128.81;6225044;23;20420;-75
2022/03/17 09:25:34;;;;;;;8.52;2.08;;;;;;;6.34;96.86;102126.44;6224505;23;20009;-74
2022/03/17 09:28:00;;;;;;;10.43;2.53;;;;;;;6.43;96.58;102130.56;6197758;23;20421;-74
2022/03/17 09:30:26;;;;;;;4.70;1.25;;;;;;;6.56;97.00;102135.13;6194203;23;20004;-73
2022/03/17 09:32:54;;;;;;;5.78;1.65;;;;;;;6.62;96.82;102141.66;6199764;23;20008;-74
2022/03/17 09:35:20;;;;;;;11.32;1.88;;;;;;;6.71;96.14;102137.53;6200548;23;20008;-74
2022/03/17 09:37:46;;;;;;;3.65;1.50;;;;;;;6.76;92.06;102136.84;6198757;23;20012;-74
2022/03/17 09:40:11;;;;;;;5.80;1.58;;;;;;;6.80;92.15;102138.06;6198988;23;20005;-74
2022/03/17 09:42:38;;;;;;;9.23;1.90;;;;;;;6.89;91.77;102145.84;6199429;23;20071;-74
2022/03/17 09:45:05;;;;;;;7.78;1.77;;;;;;;6.96;92.13;102147.66;6194487;23;20012;-74
2022/03/17 09:47:33;;;;;;;8.48;1.60;;;;;;;7.06;89.72;102148.00;6195652;23;20008;-74
2022/03/17 09:49:59;;;;;;;5.82;1.65;;;;;;;7.17;90.65;102152.75;6194170;23;20810;-74
2022/03/17 09:52:26;;;;;;;6.10;1.30;;;;;;;7.25;84.94;102160.72;6197843;23;20019;-73
2022/03/17 09:54:52;;;;;;;3.90;1.20;;;;;;;7.28;81.52;102154.72;6191180;23;20008;-74
2022/03/17 09:57:18;;;;;;;7.38;1.35;;;;;;;7.37;84.56;102156.09;6169318;23;20012;-73
2022/03/17 09:59:48;;;;;;;8.07;1.65;;;;;;;7.51;84.22;102154.00;6223738;23;20377;-72
2022/03/17 10:02:17;;;;;;;9.27;2.03;;;;;;;7.55;84.67;102154.34;6219342;23;20011;-72
2022/03/17 10:04:47;;;;;;;5.55;1.10;;;;;;;7.64;83.61;102158.50;6249076;23;20008;-72
2022/03/17 10:07:13;;;;;;;4.45;1.30;;;;;;;7.78;84.53;102157.22;6194978;23;20028;-72
2022/03/17 10:09:39;;;;;;;5.25;1.30;;;;;;;7.81;78.67;102161.44;6248443;23;20004;-72
2022/03/17 10:12:06;;;;;;;6.38;1.30;;;;;;;7.89;77.80;102171.34;6250841;23;20426;-72
2022/03/17 10:14:41;;;;;;;5.15;1.05;;;;;;;7.99;79.89;102171.59;6241560;23;20024;-72
2022/03/17 10:17:10;;;;;;;4.60;1.10;;;;;;;8.07;77.21;102177.63;6198939;23;20023;-72
2022/03/17 10:19:36;;;;;;;5.22;1.20;;;;;;;8.10;76.88;102176.31;6203553;23;20004;-72
2022/03/17 10:22:13;;;;;;;7.18;1.25;;;;;;;8.19;76.74;102180.44;6226712;23;20011;-72
2022/03/17 10:24:49;;;;;;;4.70;1.30;;;;;;;8.32;78.41;102184.06;6250870;23;20007;-73
2022/03/17 10:27:14;;;;;;;5.28;1.13;;;;;;;8.41;75.06;102189.06;6226023;23;20004;-73
2022/03/17 10:29:40;;;;;;;7.50;1.38;;;;;;;8.41;72.97;102180.75;6223617;23;20346;-72
2022/03/17 10:32:06;;;;;;;6.55;1.27;;;;;;;8.55;76.28;102186.88;6173883;23;20008;-72
2022/03/17 10:34:51;;;;;;;8.50;1.48;;;;;;;8.57;72.82;102189.44;6224117;23;20311;-72
2022/03/17 10:37:21;;;;;;;5.07;1.10;;;;;;;8.72;75.27;102189.81;6223357;23;20424;-73
2022/03/17 10:39:57;;;;;;;4.63;1.15;;;;;;;8.80;71.41;102200.50;6249624;23;20005;-73
2022/03/17 10:42:27;;;;;;;6.38;1.02;;;;;;;8.86;72.18;102190.38;6223891;23;20004;-73
2022/03/17 10:45:03;;;;;;;5.75;1.05;;;;;;;8.91;71.25;102196.03;6199616;23;20006;-73
2022/03/17 10:47:37;;;;;;;4.75;1.10;;;;;;;9.05;70.24;102194.69;6255354;23;20011;-72
2022/03/17 10:50:08;;;;;;;3.47;0.95;;;;;;;9.14;72.12;102195.19;6249901;23;20012;-73
2022/03/17 10:52:53;;;;;;;7.22;0.95;;;;;;;9.26;71.99;102189.63;6250572;23;20016;-72
2022/03/17 10:55:21;;;;;;;4.75;1.10;;;;;;;9.30;69.70;102193.59;6223672;23;20000;-72
2022/03/17 10:57:46;;;;;;;5.03;1.30;;;;;;;9.40;68.32;102205.72;6223446;23;20004;-72
2022/03/17 11:00:20;;;;;;;5.05;0.95;;;;;;;9.52;65.88;102202.09;6197947;23;20498;-73
2022/03/17 11:02:48;;;;;;;3.63;0.70;;;;;;;9.57;65.73;102199.41;6199096;23;20015;-72
2022/03/17 11:05:15;;;;;;;5.60;1.35;;;;;;;9.67;68.06;102205.19;6250124;23;20011;-73
2022/03/17 11:07:40;;;;;;;4.45;0.80;;;;;;;9.63;63.45;102202.03;6198481;23;20037;-73
2022/03/17 11:10:07;;;;;;;6.90;0.90;;;;;;;9.67;61.63;102204.31;6198420;23;20361;-72
2022/03/17 11:12:34;;;;;;;5.65;0.90;;;;;;;9.74;63.73;102196.72;6177407;23;20000;-73
2022/03/17 11:15:01;;;;;;;5.85;0.93;;;;;;;9.84;68.46;102208.00;6253442;22;20032;-73
2022/03/17 11:17:29;;;;;;;10.10;1.73;;;;;;;9.84;64.12;102210.78;6250491;23;20005;-72
2022/03/17 11:20:07;;;;;;;7.43;1.65;;;;;;;9.94;63.76;102208.19;6224215;23;20008;-73
2022/03/17 11:22:33;;;;;;;4.60;1.10;;;;;;;10.09;65.37;102206.81;6225690;23;20008;-73
2022/03/17 11:25:23;;;;;;;4.72;1.10;;;;;;;10.17;64.45;102206.38;6250214;23;20011;-73
2022/03/17 11:27:59;;;;;;;7.15;1.73;;;;;;;10.29;64.63;102207.22;6250337;23;20056;-72
2022/03/17 11:30:43;;;;;;;3.50;1.25;;;;;;;10.44;68.07;102217.72;6249738;23;20050;-73
2022/03/17 11:33:28;;;;;;;7.43;1.30;;;;;;;10.51;65.43;102216.47;6249997;23;20008;-73
2022/03/17 11:36:01;;;;;;;5.18;1.10;;;;;;;10.50;60.86;102220.38;6250075;23;20062;-72
2022/03/17 11:38:32;;;;;;;5.82;1.33;;;;;;;10.51;61.90;102218.41;6250138;23;20004;-72
2022/03/17 11:41:08;;;;;;;6.32;1.40;;;;;;;10.52;61.50;102218.16;6228337;23;20008;-73
2022/03/17 11:43:45;;;;;;;4.45;1.30;;;;;;;10.61;62.85;102214.94;6249801;23;20067;-73
2022/03/17 11:46:17;;;;;;;5.70;1.63;;;;;;;10.62;61.52;102219.44;6249908;23;20012;-73
2022/03/17 11:48:44;;;;;;;7.88;1.83;;;;;;;10.69;63.31;102218.16;6249836;23;20086;-72
2022/03/17 11:51:10;;;;;;;7.22;1.38;;;;;;;10.74;61.78;102231.28;6248755;23;20016;-72
2022/03/17 11:53:51;;;;;;;5.53;1.20;;;;;;;10.83;62.77;102220.59;6198341;23;20008;-72
2022/03/17 11:56:28;;;;;;;4.43;1.77;;;;;;;10.89;63.94;102220.44;6249941;23;20027;-72
2022/03/17 11:58:54;;;;;;;6.60;1.85;;;;;;;11.04;64.54;102227.31;6248124;23;20004;-73
2022/03/17 12:01:25;;;;;;;6.03;1.77;;;;;;;11.16;65.92;102222.47;6198088;23;20019;-73
2022/03/17 12:03:55;;;;;;;8.07;1.85;;;;;;;11.28;64.13;102226.00;6248607;23;20332;-73
2022/03/17 12:06:22;;;;;;;8.75;1.90;;;;;;;11.44;65.60;102228.97;6253877;23;20026;-73
2022/03/17 12:08:51;;;;;;;6.05;1.60;;;;;;;11.50;63.18;102227.94;6225786;23;20014;-74
2022/03/17 12:11:22;;;;;;;5.95;1.50;;;;;;;11.46;60.78;102224.00;6249757;23;20008;-73
2022/03/17 12:14:21;;;;;;;5.93;1.58;;;;;;;11.61;61.46;102238.09;6249513;22;20024;-73
2022/03/17 12:17:00;;;;;;;9.55;1.90;;;;;;;11.72;61.07;102231.53;6219132;23;20504;-73
2022/03/17 12:19:36;;;;;;;3.40;1.40;;;;;;;11.68;58.16;102235.13;6219362;23;20008;-73
2022/03/17 12:22:06;;;;;;;5.60;1.50;;;;;;;11.61;56.04;102229.75;6217832;23;20031;-73
2022/03/17 12:24:35;;;;;;;5.85;2.03;;;;;;;11.64;56.37;102220.88;6219232;23;20004;-72
2022/03/17 12:27:20;;;;;;;5.55;1.65;;;;;;;11.77;60.71;102233.56;6218074;23;20496;-73
2022/03/17 12:29:47;;;;;;;4.32;1.30;;;;;;;11.70;57.81;102222.63;6192420;23;20036;-73
2022/03/17 12:32:17;;;;;;;4.68;1.30;;;;;;;11.66;56.93;102232.59;6221256;23;20008;-74
2022/03/17 12:34:49;;;;;;;3.30;1.05;;;;;;;11.80;58.57;102236.66;6196296;23;20000;-73
2022/03/17 12:37:16;;;;;;;2.95;0.80;;;;;;;11.87;54.87;102228.16;6168267;23;20026;-73
2022/03/17 12:39:42;;;;;;;5.70;1.50;;;;;;;11.83;58.61;102236.13;6217662;23;20028;-73
2022/03/17 12:42:18;;;;;;;5.88;1.65;;;;;;;11.73;54.67;102227.69;6219196;23;20483;-72
2022/03/17 12:44:51;;;;;;;4.00;1.30;;;;;;;11.71;53.58;102231.81;6218735;23;20469;-80
2022/03/17 12:47:18;;;;;;;3.90;1.48;;;;;;;11.67;54.03;102222.28;6192462;23;20023;-72
2022/03/17 12:49:44;;;;;;;4.57;1.27;;;;;;;11.61;54.19;102225.00;6218961;23;20004;-72
2022/03/17 12:52:26;;;;;;;4.03;1.20;;;;;;;11.56;54.31;102233.31;6192588;23;20055;-71
2022/03/17 12:54:55;;;;;;;5.97;1.38;;;;;;;11.59;55.48;102232.81;6192146;23;20412;-71
2022/03/17 12:57:21;;;;;;;5.53;1.77;;;;;;;11.58;55.09;102224.69;6217168;23;20485;-72
2022/03/17 12:59:47;;;;;;;5.80;1.70;;;;;;;11.65;55.52;102219.78;6221899;23;20079;-71
2022/03/17 13:02:17;;;;;;;4.13;1.60;;;;;;;11.78;58.03;102218.53;6221028;23;20013;-71
2022/03/17 13:04:46;;;;;;;7.10;1.75;;;;;;;11.79;55.11;102223.00;6217113;23;20043;-72
2022/03/17 13:07:14;;;;;;;3.28;1.45;;;;;;;11.66;52.83;102221.47;6192479;23;20009;-71
2022/03/17 13:09:39;;;;;;;3.85;1.20;;;;;;;11.65;52.85;102224.53;6191264;23;20060;-71
2022/03/17 13:14:55;;;;;;;6.72;1.45;;;;;;;11.68;54.21;102219.25;6224645;23;20016;-72
2022/03/17 13:17:37;;;;;;;5.25;1.48;;;;;;;11.74;54.46;102220.16;6197591;23;20099;-72
2022/03/17 13:20:08;;;;;;;6.13;1.35;;;;;;;11.77;56.27;102226.03;6249341;23;20004;-72
2022/03/17 13:22:39;;;;;;;4.80;1.20;;;;;;;11.83;57.04;102215.81;6198397;23;20404;-72
2022/03/17 13:25:11;;;;;;;5.32;1.38;;;;;;;11.90;56.11;102224.00;6224338;23;20008;-71
2022/03/17 13:27:40;;;;;;;7.43;1.15;;;;;;;11.88;54.74;102227.03;6226666;23;20004;-71
2022/03/17 13:30:08;;;;;;;5.68;1.45;;;;;;;11.83;51.62;102216.66;6248909;23;20004;-72
2022/03/17 13:32:33;;;;;;;4.75;1.17;;;;;;;11.88;52.24;102217.84;6222623;23;20008;-72
2022/03/17 13:35:00;;;;;;;7.07;1.40;;;;;;;11.99;54.05;102211.28;6222675;23;20010;-72
2022/03/17 13:37:35;;;;;;;4.72;1.20;;;;;;;12.02;53.34;102207.97;6247772;23;20058;-71
2022/03/17 13:40:02;;;;;;;5.90;1.20;;;;;;;12.13;55.12;102209.75;6222917;23;20058;-71
2022/03/17 13:42:28;;;;;;;3.00;0.80;;;;;;;12.20;54.15;102210.41;6249300;23;20008;-72
2022/03/17 13:44:55;;;;;;;3.67;1.13;;;;;;;12.18;53.31;102211.78;6248784;23;20062;-71
2022/03/17 13:47:25;;;;;;;4.97;1.48;;;;;;;12.07;51.80;102211.66;6248157;23;20011;-71
2022/03/17 13:50:07;;;;;;;5.25;1.17;;;;;;;12.17;53.84;102207.28;6221865;23;20005;-72
2022/03/17 13:52:33;;;;;;;5.85;1.50;;;;;;;12.11;53.20;102206.41;6225933;23;20083;-71
2022/03/17 13:54:58;;;;;;;4.82;0.88;;;;;;;12.06;52.70;102211.91;6225445;23;20050;-72
2022/03/17 13:57:24;;;;;;;6.30;1.45;;;;;;;12.01;53.07;102207.16;6249911;23;20008;-71
2022/03/17 13:59:49;;;;;;;9.23;1.52;;;;;;;12.01;53.06;102203.53;6223985;23;20004;-72
2022/03/17 14:02:17;;;;;;;7.68;1.40;;;;;;;12.10;55.09;102199.16;6198954;23;20015;-71
2022/03/17 14:04:55;;;;;;;4.47;1.50;;;;;;;12.13;53.67;102201.41;6224672;23;20011;-72
2022/03/17 14:07:21;;;;;;;5.22;1.10;;;;;;;12.14;52.70;102205.88;6251018;23;20008;-71
2022/03/17 14:09:46;;;;;;;2.03;0.98;;;;;;;12.12;52.91;102210.88;6250859;23;20004;-70
2022/03/17 14:12:12;;;;;;;5.55;1.23;;;;;;;12.18;53.61;102212.59;6249505;23;20015;-72
2022/03/17 14:14:37;;;;;;;5.35;1.60;;;;;;;12.18;54.38;102207.03;6250156;22;20338;-72
2022/03/17 14:17:03;;;;;;;3.97;1.10;;;;;;;12.22;53.44;102201.78;6224084;23;20013;-72
2022/03/17 14:19:29;;;;;;;5.72;1.40;;;;;;;12.15;51.57;102209.50;6253876;23;20000;-71
2022/03/17 14:24:41;;;;;;;5.97;1.75;;;;;;;12.17;51.88;102208.13;6228060;23;20078;-71
2022/03/17 14:27:07;;;;;;;3.00;1.35;;;;;;;12.16;51.25;102206.44;6224383;23;20492;-71
2022/03/17 14:29:32;;;;;;;6.78;1.33;;;;;;;12.09;52.12;102205.84;6250207;23;20008;-71
2022/03/17 14:31:58;;;;;;;5.85;0.95;;;;;;;12.06;51.68;102206.34;6250672;23;20008;-71
2022/03/17 14:34:25;;;;;;;3.35;0.90;;;;;;;12.11;52.52;102206.41;6250689;23;20008;-72
2022/03/17 14:36:52;;;;;;;4.45;1.25;;;;;;;12.12;54.87;102199.75;6250902;23;20019;-72
2022/03/17 14:39:18;;;;;;;7.93;1.60;;;;;;;12.13;56.87;102203.34;6224358;23;20001;-72
2022/03/17 14:41:43;;;;;;;6.35;1.60;;;;;;;12.12;58.59;102202.53;6250433;23;20008;-72
2022/03/17 14:44:09;;;;;;;6.93;1.40;;;;;;;12.22;60.63;102205.38;6251421;23;20008;-72
2022/03/17 14:46:34;;;;;;;11.30;1.70;;;;;;;12.29;60.25;102205.19;6255263;23;20437;-72
2022/03/17 14:49:01;;;;;;;6.57;1.58;;;;;;;12.35;59.90;102211.66;6199783;23;20012;-71
2022/03/17 14:51:27;;;;;;;9.55;1.80;;;;;;;12.37;60.20;102209.41;6223713;23;20000;-72
2022/03/17 14:53:53;;;;;;;11.00;1.83;;;;;;;12.34;60.46;102216.38;6248843;23;20011;-72
2022/03/17 14:56:20;;;;;;;11.20;1.85;;;;;;;12.36;60.83;102221.69;6223608;23;20004;-72
2022/03/17 14:58:46;;;;;;;8.10;1.88;;;;;;;12.38;60.14;102211.94;6243564;23;20127;-72
2022/03/17 15:01:13;;;;;;;9.23;2.10;;;;;;;12.47;61.74;102215.91;6219742;23;20005;-72
2022/03/17 15:03:42;;;;;;;4.93;1.77;;;;;;;12.37;61.41;102220.56;6218530;23;20151;-72
2022/03/17 15:06:09;;;;;;;6.70;1.95;;;;;;;12.23;60.19;102223.81;6220091;23;20007;-72
2022/03/17 15:08:36;;;;;;;7.70;1.92;;;;;;;12.33;62.35;102216.63;6219416;23;20004;-72
2022/03/17 15:11:01;;;;;;;9.57;1.90;;;;;;;12.43;62.85;102213.97;6221023;23;20012;-72
2022/03/17 15:13:27;;;;;;;6.45;1.42;;;;;;;12.41;64.22;102221.72;6198041;23;20004;-72
2022/03/17 15:15:52;;;;;;;11.27;2.20;;;;;;;12.31;61.77;102222.47;6220031;23;20024;-72
2022/03/17 15:18:18;;;;;;;8.35;1.77;;;;;;;12.33;63.06;102216.63;6244163;23;20011;-72
2022/03/17 15:20:43;;;;;;;9.35;1.80;;;;;;;12.30;62.69;102224.41;6219882;23;20418;-72
2022/03/17 15:23:09;;;;;;;7.97;2.00;;;;;;;12.19;63.33;102219.00;6219960;23;20012;-72
2022/03/17 15:25:35;;;;;;;7.90;1.45;;;;;;;12.15;62.45;102217.88;6219734;23;20059;-71
2022/03/17 15:30:45;;;;;;;11.02;2.13;;;;;;;12.09;62.65;102219.75;6219431;23;20029;-72
2022/03/17 15:33:11;;;;;;;9.85;1.55;;;;;;;12.22;65.29;102216.53;6219904;23;20333;-72
2022/03/17 15:35:36;;;;;;;6.55;2.05;;;;;;;12.21;62.83;102226.00;6193381;23;20015;-72
2022/03/17 15:38:02;;;;;;;9.65;2.25;;;;;;;12.03;63.42;102229.97;6222395;23;20005;-72
2022/03/17 15:40:31;;;;;;;10.00;1.80;;;;;;;11.99;63.06;102219.66;6222235;23;20013;-72
2022/03/17 15:43:02;;;;;;;9.50;1.80;;;;;;;12.00;64.46;102215.75;6242744;23;20005;-72
2022/03/17 15:45:28;;;;;;;6.43;1.58;;;;;;;12.02;65.34;102216.34;6217705;23;20004;-71
2022/03/17 15:47:54;;;;;;;10.52;1.95;;;;;;;11.94;63.70;102217.63;6193185;23;20452;-71
2022/03/17 15:50:20;;;;;;;7.95;1.90;;;;;;;11.88;63.04;102206.72;6217968;23;20000;-72
2022/03/17 15:52:46;;;;;;;12.05;2.22;;;;;;;11.81;63.95;102204.94;6192830;23;20012;-71
2022/03/17 15:55:11;;;;;;;6.78;1.70;;;;;;;11.80;63.83;102207.97;6219615;23;20011;-72
2022/03/17 15:57:37;;;;;;;7.88;1.90;;;;;;;11.76;64.62;102210.47;6218085;23;20004;-71
2022/03/17 16:00:03;;;;;;;5.75;1.50;;;;;;;11.69;63.57;102215.38;6192677;23;20004;-72
2022/03/17 16:02:28;;;;;;;8.30;1.70;;;;;;;11.60;64.65;102212.22;6193094;23;20012;-72
2022/03/17 16:04:54;;;;;;;6.75;1.40;;;;;;;11.55;64.26;102211.31;6223141;23;20004;-71
2022/03/17 16:07:20;;;;;;;8.38;1.90;;;;;;;11.53;64.09;102205.16;6222977;23;20008;-72
2022/03/17 16:15:14;;;;;;;9.50;2.15;;;;;;;11.27;65.31;102218.72;6239135;23;20023;-72
2022/03/17 16:17:39;;;;;;;7.63;1.90;;;;;;;11.24;67.68;102230.38;6217916;23;20430;-72
2022/03/17 16:20:06;;;;;;;7.53;1.80;;;;;;;11.20;67.79;102234.78;6219074;23;20490;-72
2022/03/17 16:22:32;;;;;;;8.07;2.13;;;;;;;11.21;68.59;102241.19;6193402;23;20066;-72
2022/03/17 16:24:57;;;;;;;11.88;2.20;;;;;;;11.13;69.01;102240.50;6219118;23;20004;-72
2022/03/17 16:27:23;;;;;;;10.07;2.17;;;;;;;11.11;69.35;102247.41;6242900;23;20015;-77
2022/03/17 16:29:49;;;;;;;13.70;2.40;;;;;;;11.08;69.57;102247.94;6168099;23;20016;-79
2022/03/17 16:32:16;;;;;;;8.40;2.53;;;;;;;11.10;70.21;102249.38;6247493;23;20008;-78
2022/03/17 16:34:41;;;;;;;9.88;2.20;;;;;;;11.05;69.91;102248.44;6169189;23;20467;-77
2022/03/17 16:37:07;;;;;;;10.10;2.22;;;;;;;10.99;70.46;102255.03;6192817;23;20039;-78
2022/03/17 16:39:33;;;;;;;11.10;2.40;;;;;;;10.91;70.92;102253.50;6217778;23;20066;-78
2022/03/17 16:41:59;;;;;;;10.50;2.45;;;;;;;10.88;71.52;102251.25;6217749;23;20036;-74
2022/03/17 16:45:53;;;;;;;;;;;;;;;;;;;;;
2022/03/17 16:48:53;;;;;;;9.18;2.40;;;;;;;10.77;70.85;102264.13;6126192;23;20404;-78
2022/03/17 16:52:44;;;;;;;11.57;2.67;;;;;;;10.64;71.77;102265.31;5945918;24;20411;-78
2022/03/17 16:59:53;;;;;;;13.25;2.88;;;;;;;10.53;73.69;102274.56;5958927;24;20028;-78
2022/03/17 17:10:49;;;;;;;11.05;2.58;;;;;;;10.29;74.56;102290.53;5918329;24;20520;-79
2022/03/17 17:14:22;;;;;;;;;;;;;;;;;;;;;
2022/03/17 17:17:51;;;;;;;10.25;2.70;;;;;;;10.13;75.31;102296.84;5896662;24;20025;-78
2022/03/17 17:20:59;;;;;;;12.05;2.70;;;;;;;10.09;75.61;102309.53;5931347;24;20025;-78
2022/03/17 17:30:57;;;;;;;11.82;2.35;;;;;;;9.79;76.30;102314.19;5930585;24;20510;-78
2022/03/17 17:33:29;;;;;;;11.73;2.55;;;;;;;9.75;75.93;102317.69;5913286;24;20017;-78
2022/03/17 17:36:19;;;;;;;9.25;2.60;;;;;;;9.66;76.38;102321.94;5891960;24;20039;-78
2022/03/17 17:39:12;;;;;;;14.18;2.65;;;;;;;9.59;76.41;102331.25;5956909;24;20050;-78
2022/03/17 17:41:56;;;;;;;13.53;4.60;;;;;;;9.51;77.00;102334.38;5963437;23;20033;-77
2022/03/17 17:48:06;;;;;;;9.40;2.70;;;;;;;9.45;77.37;102329.81;5958065;23;20494;-72
2022/03/17 17:50:32;;;;;;;14.27;2.30;;;;;;;9.31;76.97;102345.00;6079753;23;20033;-72
2022/03/17 17:52:57;;;;;;;9.88;2.45;;;;;;;9.27;77.21;102352.94;6124972;23;20345;-70
2022/03/17 17:55:23;;;;;;;11.82;2.80;;;;;;;9.17;77.79;102356.31;6123706;23;20019;-76
2022/03/17 17:58:03;;;;;;;10.57;2.58;;;;;;;9.18;77.76;102355.22;6098635;23;20383;-77
2022/03/17 18:00:38;;;;;;;8.45;2.40;;;;;;;9.14;77.65;102361.50;6127789;23;20020;-77
2022/03/17 18:03:35;;;;;;;9.82;2.38;;;;;;;9.04;77.15;102364.03;6210299;23;20005;-77
2022/03/17 18:06:04;;;;;;;;;;;;;;;8.91;75.40;102370.59;6184002;23;20060;-76
2022/03/17 18:08:36;;;;;;;10.35;2.22;;;;;;;8.82;76.09;102370.13;6188718;23;19904;-77
2022/03/17 18:11:20;;;;;;;9.45;2.33;;;;;;;8.73;76.29;102375.16;6165494;23;20072;-77
2022/03/17 18:14:00;;;;;;;11.90;2.53;;;;;;;8.65;76.32;102369.94;6137181;23;20013;-77
2022/03/17 18:16:34;;;;;;;9.85;2.53;;;;;;;8.59;76.39;102368.13;6223665;23;20488;-77
2022/03/17 18:19:14;;;;;;;9.27;2.90;;;;;;;8.57;77.43;102367.50;6171527;23;20008;-77
2022/03/17 18:21:43;;;;;;;10.93;3.20;;;;;;;8.49;76.40;102374.22;6196022;23;20300;-77
2022/03/17 18:24:13;;;;;;;8.20;2.85;;;;;;;8.41;77.20;102370.94;6163736;23;20047;-77
2022/03/17 18:30:11;;;;;;;9.27;3.17;;;;;;;8.25;76.46;102383.50;6162667;23;20017;-71
2022/03/17 18:32:36;;;;;;;12.63;3.20;;;;;;;8.09;76.13;102392.41;6243950;23;20008;-71
2022/03/17 18:35:02;;;;;;;14.57;3.97;;;;;;;8.05;77.27;102403.09;6218871;23;20015;-71
2022/03/17 18:37:28;;;;;;;9.07;3.75;;;;;;;8.08;78.12;102399.88;6194087;23;20063;-71
2022/03/17 18:39:53;;;;;;;11.25;3.67;;;;;;;8.11;78.33;102407.72;6217454;23;20005;-71
2022/03/17 18:42:19;;;;;;;16.35;3.92;;;;;;;8.10;78.85;102411.53;6248625;23;20016;-73
2022/03/17 18:44:45;;;;;;;13.05;3.78;;;;;;;8.10;79.06;102407.94;6220259;23;20490;-73
2022/03/17 18:47:10;;;;;;;15.57;5.90;;;;;;;8.04;79.09;102418.00;6220044;23;20005;-73
2022/03/17 18:49:35;;;;;;;23.83;5.70;;;;;;;8.01;79.17;102412.94;6217767;23;20009;-73
2022/03/17 18:52:01;;;;;;;20.13;5.70;;;;;;;7.98;79.24;102413.41;6193921;23;20017;-73
2022/03/17 18:54:27;;;;;;;12.95;4.88;;;;;;;7.96;79.25;102421.06;6168579;23;20012;-73
2022/03/17 18:56:53;;;;;;;16.60;7.07;;;;;;;7.91;79.32;102424.56;6218705;23;20008;-73
2022/03/17 18:59:18;;;;;;;20.17;8.23;;;;;;;7.89;79.15;102420.31;6218012;23;20011;-73
2022/03/17 19:01:46;;;;;;;21.92;6.75;;;;;;;7.57;77.59;102434.25;6218110;23;20012;-74
2022/03/17 19:04:12;;;;;;;21.88;8.43;;;;;;;7.55;78.88;102441.91;6217926;23;20060;-73
2022/03/17 19:06:38;;;;;;;20.23;7.60;;;;;;;7.43;79.06;102444.56;6219547;23;20456;-74
2022/03/17 19:09:06;;;;;;;13.82;6.30;;;;;;;7.35;79.46;102448.50;6196016;23;20043;-73
2022/03/17 19:11:31;;;;;;;16.00;4.97;;;;;;;7.33;80.19;102445.09;6167945;23;20558;-73
2022/03/17 19:13:57;;;;;;;19.90;5.22;;;;;;;7.20;80.46;102456.25;6217847;23;20057;-73
2022/03/17 19:16:24;;;;;;;15.68;5.13;;;;;;;7.11;81.64;102455.69;6218003;23;20028;-73
2022/03/17 19:18:50;;;;;;;9.63;4.05;;;;;;;7.01;82.44;102462.75;6192940;23;20011;-73
2022/03/17 19:21:16;;;;;;;12.77;4.38;;;;;;;7.06;82.85;102458.25;6218736;23;20007;-74
2022/03/17 19:23:42;;;;;;;13.60;3.88;;;;;;;6.93;83.85;102461.94;6193536;23;20076;-74
2022/03/17 19:26:08;;;;;;;13.68;3.67;;;;;;;6.93;84.36;102461.94;6218649;23;20066;-73
2022/03/17 19:28:33;;;;;;;12.50;3.10;;;;;;;6.85;85.10;102464.13;6218140;23;20009;-73
2022/03/17 19:30:58;;;;;;;12.13;3.65;;;;;;;6.93;84.74;102464.69;6218069;23;20009;-74
2022/03/17 19:33:24;;;;;;;10.93;2.97;;;;;;;6.80;86.09;102472.22;6194176;23;20028;-74
2022/03/17 19:35:49;;;;;;;12.77;3.22;;;;;;;6.70;87.00;102476.31;6223111;23;20016;-73
2022/03/17 19:38:15;;;;;;;15.68;4.05;;;;;;;6.71;87.11;102474.41;6218962;23;20009;-73
2022/03/17 19:44:21;;;;;;;9.73;3.05;;;;;;;6.71;87.14;102486.31;6218387;23;20082;-78
2022/03/17 19:47:58;;;;;;;;;;;;;;;;;;;;;
2022/03/17 19:51:23;;;;;;;;;;;;;;;;;;;;;
2022/03/17 19:54:27;;;;;;;;;;;;;;;;;;;;;
2022/03/17 19:57:28;;;;;;;13.55;3.33;;;;;;;6.64;88.03;102502.06;6163633;23;20035;-78